createdAt,value
2019-04-07T00:02:31.517Z,20.88
2019-04-07T00:05:11.086Z,21.45
2019-04-07T00:07:37.836Z,20.08
2019-04-07T00:10:10.128Z,20.45
2019-04-07T00:12:41.751Z,19.85
2019-04-07T00:15:13.975Z,20.95
2019-04-07T00:17:45.608Z,20.65
2019-04-07T00:20:17.629Z,22.60
2019-04-07T00:22:50.031Z,21.57
2019-04-07T00:25:22.660Z,22.30
2019-04-07T00:27:54.318Z,23.92
2019-04-07T00:30:26.214Z,22.77
2019-04-07T00:32:58.429Z,21.02
2019-04-07T00:35:32.576Z,20.85
2019-04-07T00:38:03.749Z,21.25
2019-04-07T00:40:36.226Z,24.07
2019-04-07T00:43:08.067Z,23.27
2019-04-07T00:45:40.550Z,21.90
2019-04-07T00:48:13.176Z,23.07
2019-04-07T00:50:45.114Z,21.75
2019-04-07T00:53:16.988Z,21.12
2019-04-07T00:55:48.744Z,20.90
2019-04-07T00:58:20.636Z,22.45
2019-04-07T01:00:53.017Z,25.02
2019-04-07T01:03:25.990Z,22.30
2019-04-07T01:05:57.827Z,22.20
2019-04-07T01:08:30.919Z,21.12
2019-04-07T01:11:03.485Z,23.77
2019-04-07T01:13:36.258Z,23.62
2019-04-07T01:16:07.933Z,24.63
2019-04-07T01:18:40.498Z,23.67
2019-04-07T01:21:12.789Z,23.98
2019-04-07T01:23:44.478Z,23.57
2019-04-07T01:26:16.361Z,21.55
2019-04-07T01:28:48.484Z,22.58
2019-04-07T01:31:20.935Z,22.30
2019-04-07T01:33:53.171Z,23.10
2019-04-07T01:36:24.994Z,21.45
2019-04-07T01:38:56.745Z,23.75
2019-04-07T01:41:48.445Z,22.80
2019-04-07T01:44:22.009Z,24.18
2019-04-07T01:47:10.503Z,26.00
2019-04-07T01:49:47.611Z,24.72
2019-04-07T01:52:36.562Z,23.27
2019-04-07T01:55:13.008Z,24.72
2019-04-07T01:58:06.156Z,23.80
2019-04-07T02:00:57.591Z,24.35
2019-04-07T02:03:31.975Z,24.00
2019-04-07T02:06:11.748Z,24.65
2019-04-07T02:08:45.400Z,25.32
2019-04-07T02:11:22.114Z,26.80
2019-04-07T02:13:58.485Z,25.37
2019-04-07T02:16:31.868Z,24.47
2019-04-07T02:19:05.145Z,25.57
2019-04-07T02:21:48.145Z,23.62
2019-04-07T02:24:37.645Z,23.98
2019-04-07T02:27:17.960Z,24.43
2019-04-07T02:29:51.270Z,24.15
2019-04-07T02:32:25.757Z,24.10
2019-04-07T02:35:16.563Z,24.87
2019-04-07T02:37:58.917Z,22.58
2019-04-07T02:40:35.382Z,24.65
2019-04-07T02:43:12.413Z,23.73
2019-04-07T02:45:45.643Z,26.90
2019-04-07T02:48:35.427Z,25.50
2019-04-07T02:51:26.205Z,27.15
2019-04-07T02:54:00.767Z,26.23
2019-04-07T02:56:49.498Z,23.80
2019-04-07T02:59:32.022Z,23.65
2019-04-07T03:02:05.871Z,24.27
2019-04-07T03:04:56.751Z,21.93
2019-04-07T03:07:48.805Z,22.20
2019-04-07T03:10:22.808Z,24.23
2019-04-07T03:13:06.176Z,21.85
2019-04-07T03:15:40.963Z,22.22
2019-04-07T03:18:17.465Z,26.45
2019-04-07T03:20:56.905Z,32.08
2019-04-07T03:23:36.547Z,27.75
2019-04-07T03:26:25.798Z,25.20
2019-04-07T03:29:11.851Z,25.25
2019-04-07T03:31:46.720Z,25.48
2019-04-07T03:34:22.899Z,26.23
2019-04-07T03:37:27.861Z,24.18
2019-04-07T03:39:54.950Z,23.92
2019-04-07T03:42:38.524Z,25.97
2019-04-07T03:45:15.733Z,24.05
2019-04-07T03:48:08.458Z,24.15
2019-04-07T03:50:44.542Z,24.98
2019-04-07T03:53:30.490Z,25.50
2019-04-07T03:56:04.058Z,26.35
2019-04-07T03:58:40.939Z,24.12
2019-04-07T04:01:20.861Z,24.67
2019-04-07T04:04:00.724Z,23.98
2019-04-07T04:06:51.126Z,23.07
2019-04-07T04:09:38.397Z,24.32
2019-04-07T04:12:11.818Z,23.30
2019-04-07T04:14:47.875Z,26.73
2019-04-07T04:17:19.831Z,24.45
2019-04-07T04:19:51.917Z,25.05
2019-04-07T04:22:23.610Z,24.02
2019-04-07T04:24:55.611Z,24.05
2019-04-07T04:27:28.134Z,26.87
2019-04-07T04:30:00.931Z,25.75
2019-04-07T04:32:33.060Z,27.15
2019-04-07T04:35:07.204Z,25.35
2019-04-07T04:37:45.074Z,25.75
2019-04-07T04:40:14.080Z,26.55
2019-04-07T04:42:45.834Z,27.77
2019-04-07T04:45:17.903Z,29.40
2019-04-07T04:47:49.786Z,29.12
2019-04-07T04:50:22.178Z,25.37
2019-04-07T04:52:54.526Z,23.90
2019-04-07T04:55:26.273Z,22.13
2019-04-07T04:57:58.243Z,22.22
2019-04-07T05:00:30.931Z,22.77
2019-04-07T05:03:02.824Z,22.17
2019-04-07T05:05:35.626Z,23.18
2019-04-07T05:08:08.248Z,23.38
2019-04-07T05:10:40.560Z,22.10
2019-04-07T05:13:12.500Z,23.55
2019-04-07T05:15:44.577Z,23.02
2019-04-07T05:18:16.691Z,22.60
2019-04-07T05:20:49.098Z,22.42
2019-04-07T05:23:21.473Z,24.18
2019-04-07T05:25:53.337Z,23.87
2019-04-07T05:28:25.479Z,24.35
2019-04-07T05:30:57.967Z,22.50
2019-04-07T05:33:29.742Z,22.50
2019-04-07T05:36:01.527Z,23.12
2019-04-07T05:38:33.086Z,22.15
2019-04-07T05:41:05.420Z,22.45
2019-04-07T05:43:38.320Z,23.50
2019-04-07T05:46:09.906Z,24.30
2019-04-07T05:48:42.123Z,22.05
2019-04-07T05:51:14.361Z,23.38
2019-04-07T05:53:48.101Z,24.20
2019-04-07T05:56:19.852Z,23.70
2019-04-07T05:58:52.749Z,24.80
2019-04-07T06:01:24.665Z,23.95
2019-04-07T06:03:56.700Z,22.13
2019-04-07T06:06:28.480Z,21.97
2019-04-07T06:09:00.426Z,21.93
2019-04-07T06:11:35.266Z,20.32
2019-04-07T06:14:05.878Z,20.52
2019-04-07T06:16:37.869Z,20.17
2019-04-07T06:19:09.723Z,19.10
2019-04-07T06:21:41.698Z,17.55
2019-04-07T06:24:13.651Z,17.75
2019-04-07T06:26:48.119Z,16.45
2019-04-07T06:29:19.918Z,15.28
2019-04-07T06:31:51.797Z,14.03
2019-04-07T06:34:23.821Z,12.73
2019-04-07T06:36:56.856Z,13.53
2019-04-07T06:39:31.611Z,12.37
2019-04-07T06:42:02.775Z,11.80
2019-04-07T06:44:35.629Z,12.20
2019-04-07T06:47:18.719Z,11.25
2019-04-07T06:49:55.205Z,11.15
2019-04-07T06:52:44.876Z,11.03
2019-04-07T06:55:36.340Z,11.05
2019-04-07T06:58:19.740Z,10.70
2019-04-07T07:01:12.187Z,10.82
2019-04-07T07:03:58.544Z,15.23
2019-04-07T07:06:31.952Z,10.40
2019-04-07T07:09:15.736Z,10.90
2019-04-07T07:11:50.711Z,12.40
2019-04-07T07:14:44.918Z,12.30
2019-04-07T07:17:19.523Z,10.18
2019-04-07T07:20:04.392Z,10.05
2019-04-07T07:22:55.147Z,9.95
2019-04-07T07:25:29.855Z,10.70
2019-04-07T07:28:01.575Z,10.18
2019-04-07T07:30:33.295Z,10.25
2019-04-07T07:33:08.863Z,10.38
2019-04-07T07:35:38.887Z,10.00
2019-04-07T07:38:10.629Z,9.35
2019-04-07T07:40:42.618Z,9.60
2019-04-07T07:43:14.390Z,10.03
2019-04-07T07:45:48.165Z,9.43
2019-04-07T07:48:20.890Z,8.95
2019-04-07T07:50:52.673Z,10.15
2019-04-07T07:53:27.200Z,8.53
2019-04-07T07:55:58.006Z,8.98
2019-04-07T07:58:32.618Z,8.50
2019-04-07T08:01:04.308Z,8.80
2019-04-07T08:03:36.203Z,8.45
2019-04-07T08:06:08.402Z,8.43
2019-04-07T08:08:40.559Z,8.03
2019-04-07T08:11:15.334Z,8.08
2019-04-07T08:13:46.662Z,8.00
2019-04-07T08:16:19.266Z,8.48
2019-04-07T08:18:51.088Z,7.78
2019-04-07T08:21:23.662Z,7.42
2019-04-07T08:23:55.711Z,8.23
2019-04-07T08:26:27.855Z,8.15
2019-04-07T08:29:00.094Z,8.35
2019-04-07T08:31:32.625Z,8.58
2019-04-07T08:34:04.337Z,7.87
2019-04-07T08:36:36.263Z,8.30
2019-04-07T08:39:19.509Z,7.95
2019-04-07T08:41:42.751Z,7.67
2019-04-07T08:44:15.124Z,7.92
2019-04-07T08:46:47.122Z,8.70
2019-04-07T08:49:21.150Z,7.72
2019-04-07T08:51:52.566Z,8.43
2019-04-07T08:54:24.569Z,8.18
2019-04-07T08:56:58.120Z,8.85
2019-04-07T08:59:30.339Z,8.15
2019-04-07T09:02:02.152Z,7.90
2019-04-07T09:04:34.457Z,7.90
2019-04-07T09:07:06.698Z,8.03
2019-04-07T09:09:44.861Z,8.45
2019-04-07T09:12:11.662Z,8.68
2019-04-07T09:14:44.085Z,8.65
2019-04-07T09:17:30.004Z,8.50
2019-04-07T09:19:58.293Z,9.55
2019-04-07T09:22:44.057Z,9.18
2019-04-07T09:25:27.233Z,8.95
2019-04-07T09:28:01.002Z,8.25
2019-04-07T09:30:34.501Z,9.38
2019-04-07T09:33:09.021Z,9.77
2019-04-07T09:35:59.352Z,9.55
2019-04-07T09:38:33.405Z,9.18
2019-04-07T09:41:07.350Z,8.95
2019-04-07T09:43:45.052Z,9.13
2019-04-07T09:46:24.927Z,9.70
2019-04-07T09:49:01.872Z,9.70
2019-04-07T09:51:41.236Z,10.58
2019-04-07T09:54:13.403Z,10.00
2019-04-07T09:56:49.764Z,9.70
2019-04-07T09:59:30.692Z,9.20
2019-04-07T10:02:19.639Z,9.13
2019-04-07T10:05:05.330Z,10.00
2019-04-07T10:07:42.812Z,9.75
2019-04-07T10:10:19.509Z,10.20
2019-04-07T10:12:56.607Z,8.58
2019-04-07T10:15:46.452Z,8.70
2019-04-07T10:18:22.938Z,8.65
2019-04-07T10:21:12.503Z,9.15
2019-04-07T10:23:50.610Z,9.10
2019-04-07T10:26:33.704Z,9.33
2019-04-07T10:29:07.298Z,9.18
2019-04-07T10:31:41.514Z,9.70
2019-04-07T10:34:31.835Z,9.10
2019-04-07T10:37:20.940Z,9.40
2019-04-07T10:39:59.367Z,8.80
2019-04-07T10:42:35.892Z,10.98
2019-04-07T10:45:16.156Z,9.70
2019-04-07T10:48:02.483Z,9.03
2019-04-07T10:50:44.761Z,8.75
2019-04-07T10:53:18.236Z,7.92
2019-04-07T10:55:57.655Z,9.45
2019-04-07T10:58:34.186Z,8.68
2019-04-07T11:01:16.823Z,8.53
2019-04-07T11:04:06.879Z,9.13
2019-04-07T11:06:52.653Z,9.83
2019-04-07T11:09:30.031Z,9.28
2019-04-07T11:12:21.896Z,8.40
2019-04-07T11:14:58.962Z,8.65
2019-04-07T11:17:32.618Z,7.95
2019-04-07T11:20:23.645Z,8.25
2019-04-07T11:23:06.232Z,8.40
2019-04-07T11:25:46.121Z,8.30
2019-04-07T11:28:29.068Z,7.55
2019-04-07T11:31:02.413Z,8.13
2019-04-07T11:33:36.194Z,7.80
2019-04-07T11:36:18.024Z,8.10
2019-04-07T11:38:56.729Z,9.35
2019-04-07T11:41:34.025Z,8.38
2019-04-07T11:44:10.602Z,7.78
2019-04-07T11:46:44.246Z,7.30
2019-04-07T11:49:21.492Z,7.60
2019-04-07T11:51:55.603Z,8.08
2019-04-07T11:54:32.664Z,7.37
2019-04-07T11:57:13.568Z,8.00
2019-04-07T11:59:59.021Z,8.53
2019-04-07T12:02:33.007Z,8.15
2019-04-07T12:05:14.790Z,7.65
2019-04-07T12:08:01.760Z,8.35
2019-04-07T12:10:58.583Z,7.50
2019-04-07T12:13:26.664Z,7.28
2019-04-07T12:16:00.458Z,7.90
2019-04-07T12:18:53.403Z,7.67
2019-04-07T12:21:27.858Z,7.55
2019-04-07T12:24:01.606Z,7.75
2019-04-07T12:26:43.916Z,8.18
2019-04-07T12:29:23.283Z,7.03
2019-04-07T12:32:12.023Z,7.75
2019-04-07T12:34:51.223Z,7.85
2019-04-07T12:37:24.660Z,7.30
2019-04-07T12:40:01.193Z,6.85
2019-04-07T12:42:43.384Z,8.03
2019-04-07T12:45:19.856Z,25.00
2019-04-07T12:48:05.957Z,35.55
2019-04-07T12:50:56.269Z,21.52
2019-04-07T12:53:36.551Z,16.57
2019-04-07T12:56:26.438Z,18.60
2019-04-07T12:59:07.767Z,16.55
2019-04-07T13:01:44.574Z,36.33
2019-04-07T13:04:21.869Z,11.43
2019-04-07T13:06:55.636Z,16.50
2019-04-07T13:09:46.133Z,7.75
2019-04-07T13:12:22.963Z,11.43
2019-04-07T13:15:14.048Z,16.12
2019-04-07T13:17:50.642Z,8.40
2019-04-07T13:20:42.658Z,9.63
2019-04-07T13:23:22.250Z,7.87
2019-04-07T13:25:56.718Z,8.70
2019-04-07T13:28:32.777Z,8.55
2019-04-07T13:31:05.943Z,7.62
2019-04-07T13:33:42.179Z,7.92
2019-04-07T13:36:28.064Z,7.60
2019-04-07T13:39:07.556Z,9.98
2019-04-07T13:41:45.875Z,9.23
2019-04-07T13:44:28.374Z,10.58
2019-04-07T13:47:07.317Z,13.55
2019-04-07T13:49:59.021Z,11.55
2019-04-07T13:52:41.931Z,9.75
2019-04-07T13:55:19.443Z,8.70
2019-04-07T13:57:59.539Z,13.55
2019-04-07T14:00:46.686Z,10.78
2019-04-07T14:03:25.227Z,11.53
2019-04-07T14:06:05.615Z,13.38
2019-04-07T14:08:51.748Z,9.80
2019-04-07T14:11:53.435Z,10.55
2019-04-07T14:14:28.423Z,15.78
2019-04-07T14:17:08.340Z,16.80
2019-04-07T14:19:44.537Z,10.75
2019-04-07T14:22:19.279Z,8.30
2019-04-07T14:24:53.715Z,9.18
2019-04-07T14:27:47.182Z,10.72
2019-04-07T14:30:24.488Z,8.50
2019-04-07T14:33:01.158Z,8.28
2019-04-07T14:35:44.209Z,8.70
2019-04-07T14:38:17.573Z,8.88
2019-04-07T14:41:07.487Z,8.03
2019-04-07T14:43:50.782Z,8.00
2019-04-07T14:46:24.198Z,7.85
2019-04-07T14:49:15.598Z,7.75
2019-04-07T14:51:51.460Z,8.20
2019-04-07T14:54:43.981Z,8.65
2019-04-07T14:57:26.186Z,7.80
2019-04-07T15:00:17.257Z,8.03
2019-04-07T15:02:49.877Z,8.80
2019-04-07T15:05:26.044Z,8.80
2019-04-07T15:08:05.064Z,8.05
2019-04-07T15:10:38.499Z,8.18
2019-04-07T15:13:12.057Z,7.80
2019-04-07T15:15:44.294Z,7.87
2019-04-07T15:18:16.512Z,8.18
2019-04-07T15:20:49.118Z,9.08
2019-04-07T15:23:21.663Z,8.38
2019-04-07T15:25:53.315Z,8.85
2019-04-07T15:28:24.976Z,9.73
2019-04-07T15:30:56.895Z,9.80
2019-04-07T15:33:31.432Z,9.50
2019-04-07T15:36:02.202Z,9.73
2019-04-07T15:38:34.490Z,9.83
2019-04-07T15:41:09.893Z,8.93
2019-04-07T15:43:40.113Z,9.25
2019-04-07T15:46:13.033Z,9.38
2019-04-07T15:48:45.459Z,8.53
2019-04-07T15:51:17.554Z,8.40
2019-04-07T15:53:51.656Z,9.68
2019-04-07T15:56:24.107Z,10.13
2019-04-07T15:59:00.109Z,9.40
2019-04-07T16:01:31.417Z,9.15
2019-04-07T16:04:05.731Z,8.45
2019-04-07T16:06:37.134Z,9.88
2019-04-07T16:09:13.967Z,9.15
2019-04-07T16:14:16.113Z,10.20
2019-04-07T16:16:47.779Z,10.48
2019-04-07T16:19:28.692Z,10.95
2019-04-07T16:21:54.930Z,11.28
2019-04-07T16:24:26.980Z,11.10
2019-04-07T16:27:02.357Z,11.18
2019-04-07T16:29:33.008Z,12.15
2019-04-07T16:32:04.841Z,12.05
2019-04-07T16:34:38.804Z,11.48
2019-04-07T16:37:10.419Z,14.28
2019-04-07T16:39:42.655Z,21.33
2019-04-07T16:42:15.380Z,16.20
2019-04-07T16:44:47.257Z,14.63
2019-04-07T16:47:23.212Z,16.10
2019-04-07T16:49:52.463Z,23.85
2019-04-07T16:52:24.470Z,20.85
2019-04-07T16:54:56.126Z,15.32
2019-04-07T16:57:31.093Z,11.28
2019-04-07T17:00:01.710Z,11.50
2019-04-07T17:02:34.907Z,13.55
2019-04-07T17:05:07.864Z,18.87
2019-04-07T17:07:39.576Z,28.98
2019-04-07T17:10:11.840Z,27.73
2019-04-07T17:12:44.006Z,30.02
2019-04-07T17:15:15.756Z,28.80
2019-04-07T17:17:51.289Z,23.75
2019-04-07T17:20:21.019Z,23.92
2019-04-07T17:22:53.020Z,21.50
2019-04-07T17:25:25.572Z,24.47
2019-04-07T17:30:30.424Z,23.90
2019-04-07T17:33:03.237Z,22.35
2019-04-07T17:35:35.910Z,21.73
2019-04-07T17:38:09.383Z,21.93
2019-04-07T17:40:44.323Z,23.05
2019-04-07T17:43:46.548Z,25.43
2019-04-07T17:46:09.218Z,28.40
2019-04-07T17:48:53.101Z,25.15
2019-04-07T17:51:27.485Z,24.12
2019-04-07T17:54:04.629Z,21.82
2019-04-07T17:56:40.655Z,20.45
2019-04-07T17:59:17.133Z,23.40
2019-04-07T18:01:57.443Z,31.37
2019-04-07T18:04:35.190Z,26.50
2019-04-07T18:07:21.306Z,26.15
2019-04-07T18:10:10.031Z,25.75
2019-04-07T18:13:00.068Z,22.30
2019-04-07T18:15:46.543Z,22.13
2019-04-07T18:18:32.227Z,22.00
2019-04-07T18:21:11.675Z,20.97
2019-04-07T18:23:59.767Z,22.42
2019-04-07T18:26:35.420Z,23.57
2019-04-07T18:29:14.724Z,25.00
2019-04-07T18:32:04.997Z,25.88
2019-04-07T18:34:50.638Z,24.37
2019-04-07T18:37:42.185Z,24.02
2019-04-07T18:40:26.299Z,24.47
2019-04-07T18:43:15.699Z,24.02
2019-04-07T18:45:51.360Z,23.05
2019-04-07T18:48:27.542Z,24.65
2019-04-07T18:50:59.115Z,25.92
2019-04-07T18:53:42.818Z,25.17
2019-04-07T18:56:22.592Z,26.42
2019-04-07T18:59:12.871Z,25.62
2019-04-07T19:02:03.215Z,25.85
2019-04-07T19:04:53.430Z,26.37
2019-04-07T19:07:32.880Z,24.75
2019-04-07T19:10:24.118Z,23.85
2019-04-07T19:13:05.710Z,21.62
2019-04-07T19:15:40.064Z,21.60
2019-04-07T19:18:30.879Z,23.02
2019-04-07T19:21:16.660Z,20.95
2019-04-07T19:26:42.689Z,22.40
2019-04-07T19:29:32.411Z,21.75
2019-04-07T19:32:12.002Z,19.57
2019-04-07T19:35:02.634Z,19.80
2019-04-07T19:37:47.350Z,19.35
2019-04-07T19:40:32.515Z,18.90
2019-04-07T19:43:18.089Z,19.12
2019-04-07T19:45:58.561Z,18.77
2019-04-07T19:48:49.096Z,19.30
2019-04-07T19:51:28.331Z,17.87
2019-04-07T19:54:06.763Z,18.50
2019-04-07T19:56:43.668Z,17.92
2019-04-07T19:59:17.409Z,19.15
2019-04-07T20:01:59.070Z,17.50
2019-04-07T20:04:36.030Z,17.90
2019-04-07T20:07:28.591Z,18.05
2019-04-07T20:10:01.087Z,18.45
2019-04-07T20:12:37.969Z,17.50
2019-04-07T20:15:30.612Z,17.92
2019-04-07T20:18:19.197Z,15.90
2019-04-07T20:20:58.324Z,16.50
2019-04-07T20:23:34.587Z,17.30
2019-04-07T20:26:26.650Z,17.10
2019-04-07T20:29:09.396Z,16.52
2019-04-07T20:32:00.541Z,16.60
2019-04-07T20:34:43.357Z,16.02
2019-04-07T20:37:28.798Z,16.42
2019-04-07T20:40:19.342Z,16.32
2019-04-07T20:42:58.272Z,15.40
2019-04-07T20:45:33.601Z,15.45
2019-04-07T20:48:07.336Z,16.15
2019-04-07T20:50:46.997Z,16.50
2019-04-07T20:53:29.939Z,15.68
2019-04-07T20:56:04.261Z,15.38
2019-04-07T20:58:46.453Z,16.10
2019-04-07T21:01:18.706Z,16.17
2019-04-07T21:04:06.441Z,16.48
2019-04-07T21:06:49.619Z,16.05
2019-04-07T21:09:34.565Z,17.30
2019-04-07T21:12:23.131Z,16.70
2019-04-07T21:15:15.403Z,16.50
2019-04-07T21:17:46.541Z,15.40
2019-04-07T21:20:32.419Z,16.50
2019-04-07T21:25:59.404Z,15.85
2019-04-07T21:28:35.132Z,16.75
2019-04-07T21:31:21.442Z,16.45
2019-04-07T21:33:57.810Z,16.37
2019-04-07T21:36:37.587Z,16.57
2019-04-07T21:39:16.316Z,16.67
2019-04-07T21:41:56.278Z,17.55
2019-04-07T21:44:35.886Z,17.77
2019-04-07T21:47:12.017Z,17.98
2019-04-07T21:49:48.019Z,19.42
2019-04-07T21:52:23.365Z,19.00
2019-04-07T21:55:12.554Z,18.37
2019-04-07T21:57:50.738Z,15.60
2019-04-07T22:00:37.690Z,15.43
2019-04-07T22:03:26.951Z,14.58
2019-04-07T22:06:03.505Z,13.45
2019-04-07T22:08:43.354Z,13.08
2019-04-07T22:11:13.358Z,12.98
2019-04-07T22:13:45.333Z,12.55
2019-04-07T22:16:17.194Z,12.80
2019-04-07T22:18:49.134Z,12.88
2019-04-07T22:21:22.352Z,12.45
2019-04-07T22:23:54.509Z,13.95
2019-04-07T22:26:26.416Z,13.35
2019-04-07T22:29:01.249Z,12.33
2019-04-07T22:31:36.719Z,12.10
2019-04-07T22:34:09.004Z,11.40
2019-04-07T22:36:41.655Z,10.18
2019-04-07T22:39:14.202Z,10.55
2019-04-07T22:41:46.320Z,10.30
2019-04-07T22:44:20.411Z,10.68
2019-04-07T22:46:52.326Z,10.80
2019-04-07T22:49:28.448Z,9.88
2019-04-07T22:51:57.906Z,10.70
2019-04-07T22:54:31.256Z,10.08
2019-04-07T22:57:03.478Z,9.80
2019-04-07T22:59:36.359Z,9.85
2019-04-07T23:02:08.600Z,9.40
2019-04-07T23:04:40.580Z,10.68
2019-04-07T23:07:12.371Z,9.80
2019-04-07T23:09:44.328Z,9.88
2019-04-07T23:12:16.875Z,9.63
2019-04-07T23:14:48.557Z,9.45
2019-04-07T23:17:20.315Z,9.33
2019-04-07T23:19:52.508Z,9.78
2019-04-07T23:22:25.549Z,9.30
2019-04-07T23:24:57.193Z,9.38
2019-04-07T23:27:29.735Z,8.45
2019-04-07T23:30:01.678Z,8.93
2019-04-07T23:32:34.227Z,8.85
2019-04-07T23:35:08.283Z,9.28
2019-04-07T23:37:40.031Z,8.98
2019-04-07T23:40:11.990Z,8.85
2019-04-07T23:42:44.638Z,8.60
2019-04-07T23:45:16.649Z,9.20
2019-04-07T23:47:48.301Z,9.63
2019-04-07T23:50:20.260Z,9.05
2019-04-07T23:52:51.922Z,10.15
2019-04-07T23:55:24.091Z,9.05
2019-04-07T23:57:56.283Z,9.50
